Time;durP1;ratioP1;P1;durP2;ratioP2;P2;SDS_P1;SDS_P2;PMS_P1;PMS_P2;Temp;Humidity;BMP_temperature;BMP_pressure;BME280_temperature;BME280_humidity;BME280_pressure;Samples;Min_cycle;Max_cycle;Signal;HPM_P1;HPM_P2
2022/02/15 00:02:19;;;;;;;6.20;3.35;;;4.40;99.90;;;;;;5013908;28;20418;-87
2022/02/15 00:04:45;;;;;;;4.97;3.15;;;4.40;99.90;;;;;;4997845;28;20055;-86
2022/02/15 00:07:12;;;;;;;4.43;3.42;;;4.50;99.90;;;;;;5014701;28;20049;-87
2022/02/15 00:09:39;;;;;;;4.47;3.22;;;4.60;99.90;;;;;;5013003;28;20046;-87
2022/02/15 00:12:06;;;;;;;5.32;3.55;;;4.70;99.90;;;;;;5013763;28;20050;-86
2022/02/15 00:14:33;;;;;;;6.82;3.30;;;4.80;99.90;;;;;;5012707;28;20392;-87
2022/02/15 00:17:01;;;;;;;4.40;3.05;;;4.90;99.90;;;;;;5013659;28;20128;-87
2022/02/15 00:19:28;;;;;;;3.88;3.33;;;4.90;99.90;;;;;;5013404;28;20064;-86
2022/02/15 00:21:55;;;;;;;5.07;3.10;;;4.90;99.90;;;;;;5013517;28;20048;-86
2022/02/15 00:24:22;;;;;;;5.32;3.33;;;4.90;99.90;;;;;;5013003;28;20049;-87
2022/02/15 00:26:49;;;;;;;7.53;3.28;;;4.90;99.90;;;;;;5012455;28;20056;-87
2022/02/15 00:29:15;;;;;;;4.30;2.90;;;4.90;99.90;;;;;;5014104;28;20056;-87
2022/02/15 00:31:42;;;;;;;5.13;3.15;;;4.90;99.90;;;;;;5013176;28;20041;-87
2022/02/15 00:34:09;;;;;;;4.68;3.13;;;4.80;99.90;;;;;;5012199;28;20057;-86
2022/02/15 00:36:36;;;;;;;7.00;3.20;;;4.70;99.90;;;;;;5012158;28;20046;-87
2022/02/15 00:39:03;;;;;;;5.97;3.30;;;4.70;99.90;;;;;;5013923;28;20088;-86
2022/02/15 00:41:30;;;;;;;4.25;3.08;;;4.80;99.90;;;;;;5013101;28;20060;-86
2022/02/15 00:43:56;;;;;;;5.70;3.15;;;4.90;99.90;;;;;;5012599;28;20421;-86
2022/02/15 00:46:23;;;;;;;4.00;3.08;;;4.90;99.90;;;;;;5012604;28;20045;-87
2022/02/15 00:48:51;;;;;;;3.38;2.90;;;4.90;99.90;;;;;;5014058;28;20046;-87
2022/02/15 00:51:17;;;;;;;6.60;3.00;;;4.80;99.90;;;;;;5012794;28;20505;-87
2022/02/15 00:53:44;;;;;;;3.63;3.05;;;4.80;99.90;;;;;;5012682;28;20418;-86
2022/02/15 00:56:11;;;;;;;9.13;3.15;;;4.80;99.90;;;;;;5013779;28;20057;-87
2022/02/15 00:58:38;;;;;;;5.78;3.30;;;4.80;99.90;;;;;;5012539;28;20050;-87
2022/02/15 01:01:05;;;;;;;7.25;3.10;;;4.80;99.90;;;;;;5012804;28;20072;-87
2022/02/15 01:03:32;;;;;;;4.40;3.00;;;4.80;99.90;;;;;;5012660;28;20056;-86
2022/02/15 01:05:59;;;;;;;3.55;3.05;;;4.80;99.90;;;;;;5014092;28;20046;-87
2022/02/15 01:08:27;;;;;;;3.55;3.20;;;4.80;99.90;;;;;;5012462;28;20054;-87
2022/02/15 01:10:54;;;;;;;6.07;3.10;;;4.70;99.90;;;;;;5012333;28;20486;-87
2022/02/15 01:13:22;;;;;;;6.88;3.25;;;4.60;99.90;;;;;;5012707;28;20088;-87
2022/02/15 01:15:50;;;;;;;5.88;2.92;;;4.70;99.90;;;;;;5012512;28;20050;-87
2022/02/15 01:18:17;;;;;;;5.30;3.40;;;4.70;99.90;;;;;;5013130;28;20064;-86
2022/02/15 01:20:46;;;;;;;4.15;3.17;;;4.70;99.90;;;;;;5012357;28;20367;-86
2022/02/15 01:23:13;;;;;;;4.70;2.70;;;4.70;99.90;;;;;;4995705;28;20050;-87
2022/02/15 01:25:39;;;;;;;4.50;2.92;;;4.80;99.90;;;;;;5013200;28;20129;-84
2022/02/15 01:28:06;;;;;;;4.10;3.20;;;4.80;99.90;;;;;;5013452;28;20065;-86
2022/02/15 01:30:33;;;;;;;3.83;2.65;;;4.80;99.90;;;;;;5013149;28;20399;-87
2022/02/15 01:32:59;;;;;;;4.40;2.63;;;4.90;99.90;;;;;;5012986;28;20056;-87
2022/02/15 01:35:26;;;;;;;3.33;2.72;;;4.90;99.90;;;;;;5013067;28;20166;-87
2022/02/15 01:37:53;;;;;;;6.97;3.13;;;5.00;99.90;;;;;;5011239;28;20422;-87
2022/02/15 01:40:20;;;;;;;3.22;2.92;;;4.90;99.90;;;;;;5013127;28;20052;-86
2022/02/15 01:42:48;;;;;;;4.90;3.05;;;4.90;99.90;;;;;;5013220;28;20390;-87
2022/02/15 01:45:17;;;;;;;3.45;2.75;;;4.80;99.90;;;;;;5012045;28;20056;-87
2022/02/15 01:47:45;;;;;;;3.95;2.80;;;4.80;99.90;;;;;;5012023;28;20137;-87
2022/02/15 01:50:13;;;;;;;4.43;3.00;;;4.80;99.90;;;;;;5012081;28;20081;-86
2022/02/15 01:52:40;;;;;;;2.95;2.45;;;4.70;99.90;;;;;;5011721;28;20046;-87
2022/02/15 01:55:08;;;;;;;2.90;2.70;;;4.80;99.90;;;;;;5013076;28;20461;-87
2022/02/15 01:57:35;;;;;;;4.35;3.10;;;4.70;99.90;;;;;;5012032;28;20049;-87
2022/02/15 02:00:07;;;;;;;3.78;2.78;;;4.80;99.90;;;;;;5013136;28;20084;-87
2022/02/15 02:02:34;;;;;;;4.53;3.20;;;4.80;99.90;;;;;;4995638;28;20065;-87
2022/02/15 02:07:47;;;;;;;4.35;3.30;;;4.80;99.90;;;;;;5013333;28;20053;-86
2022/02/15 02:10:14;;;;;;;5.32;3.30;;;4.80;99.90;;;;;;4995308;28;20602;-87
2022/02/15 02:12:41;;;;;;;5.43;2.78;;;4.90;99.90;;;;;;5011574;28;20052;-87
2022/02/15 02:15:14;;;;;;;4.95;2.97;;;4.80;99.90;;;;;;5012781;28;20050;-87
2022/02/15 02:17:40;;;;;;;3.67;2.80;;;4.90;99.90;;;;;;5012166;28;20056;-86
2022/02/15 02:20:08;;;;;;;4.70;2.90;;;4.90;99.90;;;;;;5011558;28;20100;-87
2022/02/15 02:22:35;;;;;;;5.85;2.70;;;4.90;99.90;;;;;;5012928;28;20045;-87
2022/02/15 02:25:03;;;;;;;3.80;2.95;;;5.00;99.90;;;;;;5011498;28;20046;-86
2022/02/15 02:27:32;;;;;;;3.78;2.60;;;4.90;99.90;;;;;;5010573;28;20046;-87
2022/02/15 02:30:00;;;;;;;5.65;2.70;;;4.90;99.90;;;;;;5012609;28;20108;-87
2022/02/15 02:32:28;;;;;;;7.22;2.67;;;4.90;99.90;;;;;;5011574;28;20470;-87
2022/02/15 02:34:57;;;;;;;3.63;2.60;;;4.80;99.90;;;;;;5012656;28;20045;-86
2022/02/15 02:37:24;;;;;;;2.95;2.35;;;4.80;99.90;;;;;;5011615;28;20413;-86
2022/02/15 02:39:53;;;;;;;6.13;2.92;;;4.80;99.90;;;;;;5011665;28;20052;-87
2022/02/15 02:42:21;;;;;;;2.97;2.47;;;4.70;99.90;;;;;;5011325;28;20128;-87
2022/02/15 02:44:49;;;;;;;3.70;2.53;;;4.60;99.90;;;;;;5011338;28;20508;-86
2022/02/15 02:47:15;;;;;;;3.03;2.67;;;4.50;99.90;;;;;;4994925;28;20085;-87
2022/02/15 02:49:42;;;;;;;3.83;2.65;;;4.40;99.90;;;;;;5015066;28;20494;-87
2022/02/15 02:52:09;;;;;;;2.97;2.53;;;4.20;99.90;;;;;;4998947;28;20058;-87
2022/02/15 02:54:35;;;;;;;3.63;2.90;;;4.10;99.90;;;;;;5015695;28;20045;-87
2022/02/15 02:57:03;;;;;;;3.80;2.85;;;4.00;99.90;;;;;;5015666;28;20495;-86
2022/02/15 02:59:30;;;;;;;5.03;2.63;;;3.80;99.90;;;;;;5014620;28;20073;-87
2022/02/15 03:01:57;;;;;;;4.50;2.78;;;3.70;99.90;;;;;;5016103;28;20133;-86
2022/02/15 03:04:24;;;;;;;4.85;2.80;;;3.60;99.90;;;;;;5015147;28;20045;-87
2022/02/15 03:06:51;;;;;;;7.80;3.17;;;3.50;99.90;;;;;;5015184;28;20042;-84
2022/02/15 03:09:18;;;;;;;5.18;2.65;;;3.40;99.90;;;;;;5015163;28;20140;-86
2022/02/15 03:11:45;;;;;;;3.78;2.70;;;3.40;99.90;;;;;;5014785;28;20096;-87
2022/02/15 03:14:12;;;;;;;4.20;2.50;;;3.30;99.90;;;;;;5014514;28;20553;-87
2022/02/15 03:16:38;;;;;;;4.32;3.28;;;3.20;99.90;;;;;;5014629;28;20081;-86
2022/02/15 03:19:05;;;;;;;3.25;2.88;;;3.30;99.90;;;;;;5015597;28;20148;-87
2022/02/15 03:21:32;;;;;;;3.33;3.03;;;3.10;99.90;;;;;;5014619;28;20092;-87
2022/02/15 03:23:59;;;;;;;6.00;2.75;;;3.10;99.90;;;;;;5014450;28;20068;-87
2022/02/15 03:26:26;;;;;;;5.40;3.15;;;3.00;99.90;;;;;;5015442;28;20053;-87
2022/02/15 03:28:53;;;;;;;2.90;2.38;;;3.00;99.90;;;;;;5014780;28;20542;-87
2022/02/15 03:31:21;;;;;;;6.50;3.33;;;2.90;99.90;;;;;;5015617;28;20050;-87
2022/02/15 03:33:48;;;;;;;3.25;2.53;;;2.90;99.90;;;;;;5014207;28;20076;-86
2022/02/15 03:36:15;;;;;;;4.72;3.13;;;2.80;99.90;;;;;;5014402;28;20046;-86
2022/02/15 03:38:43;;;;;;;7.70;3.13;;;2.70;99.90;;;;;;5014137;28;20092;-86
2022/02/15 03:43:55;;;;;;;4.32;3.30;;;2.40;99.90;;;;;;5015207;28;20048;-87
2022/02/15 03:46:22;;;;;;;3.67;3.30;;;2.50;99.90;;;;;;4997787;28;20060;-87
2022/02/15 03:48:51;;;;;;;7.25;3.17;;;2.50;99.90;;;;;;5013854;28;20045;-86
2022/02/15 03:51:18;;;;;;;6.93;3.95;;;2.50;99.90;;;;;;5014880;28;20057;-87
2022/02/15 03:53:45;;;;;;;8.35;3.90;;;2.50;99.90;;;;;;5013768;28;20415;-87
2022/02/15 03:56:13;;;;;;;5.72;3.80;;;2.50;99.90;;;;;;5013584;28;20073;-87
2022/02/15 03:58:40;;;;;;;4.05;3.28;;;2.40;99.90;;;;;;5013275;28;20056;-87
2022/02/15 04:01:09;;;;;;;5.53;4.07;;;2.40;99.90;;;;;;5012747;28;20052;-87
2022/02/15 04:03:35;;;;;;;4.25;3.42;;;2.40;99.90;;;;;;5013595;28;20054;-87
2022/02/15 04:06:02;;;;;;;6.30;3.47;;;2.30;99.90;;;;;;5013446;28;20124;-87
2022/02/15 04:08:29;;;;;;;4.75;4.10;;;2.40;99.90;;;;;;5013625;28;20060;-87
2022/02/15 04:10:56;;;;;;;7.03;4.07;;;2.30;99.90;;;;;;5014865;28;20491;-87
2022/02/15 04:13:22;;;;;;;7.40;4.88;;;2.40;99.90;;;;;;5014043;28;20083;-87
2022/02/15 04:15:49;;;;;;;5.63;5.03;;;2.40;99.90;;;;;;5014580;28;20050;-86
2022/02/15 04:18:16;;;;;;;6.50;5.20;;;2.40;99.90;;;;;;5013356;28;20068;-86
2022/02/15 04:20:43;;;;;;;4.85;4.38;;;2.50;99.90;;;;;;5014647;28;20089;-87
2022/02/15 04:23:09;;;;;;;5.13;4.63;;;2.50;99.90;;;;;;5015194;28;20137;-87
2022/02/15 04:25:36;;;;;;;5.40;4.63;;;2.60;99.90;;;;;;5013526;28;20411;-87
2022/02/15 04:28:03;;;;;;;5.20;4.45;;;2.70;99.90;;;;;;5014709;28;20491;-87
2022/02/15 04:30:30;;;;;;;6.32;4.32;;;2.80;99.90;;;;;;5013480;28;20077;-87
2022/02/15 04:32:57;;;;;;;10.98;4.57;;;2.80;99.90;;;;;;5013290;28;20057;-87
2022/02/15 04:35:23;;;;;;;5.80;4.22;;;2.80;99.90;;;;;;5013116;28;20060;-87
2022/02/15 04:37:50;;;;;;;5.82;4.07;;;2.80;99.90;;;;;;5013335;28;20052;-87
2022/02/15 04:40:17;;;;;;;4.80;3.40;;;2.80;99.90;;;;;;4996884;28;20054;-87
2022/02/15 04:42:47;;;;;;;5.25;3.88;;;2.80;99.90;;;;;;5013925;28;20054;-87
2022/02/15 04:45:13;;;;;;;7.90;3.88;;;2.70;99.90;;;;;;5013032;28;20057;-84
2022/02/15 04:47:41;;;;;;;4.50;3.97;;;2.70;99.90;;;;;;5012960;28;20058;-86
2022/02/15 04:50:09;;;;;;;5.25;3.55;;;2.60;99.90;;;;;;5013239;28;20391;-87
2022/02/15 04:52:36;;;;;;;5.53;3.95;;;2.60;99.90;;;;;;5014342;28;20557;-87
2022/02/15 04:55:04;;;;;;;5.47;4.00;;;2.60;99.90;;;;;;4997208;28;20042;-87
2022/02/15 04:57:30;;;;;;;10.52;4.38;;;2.50;99.90;;;;;;5017537;28;20141;-87
2022/02/15 04:59:57;;;;;;;3.72;3.42;;;2.40;99.90;;;;;;5016724;28;20092;-86
2022/02/15 05:02:24;;;;;;;3.90;3.60;;;2.30;99.90;;;;;;5014534;28;20042;-87
2022/02/15 05:04:51;;;;;;;5.72;3.60;;;2.30;99.90;;;;;;5012545;28;20050;-87
2022/02/15 05:07:19;;;;;;;7.25;4.65;;;2.40;99.90;;;;;;5012833;28;20054;-87
2022/02/15 05:09:46;;;;;;;9.18;5.38;;;2.40;99.90;;;;;;5012619;28;20046;-84
2022/02/15 05:12:14;;;;;;;8.60;4.70;;;2.40;99.90;;;;;;5012149;28;20061;-87
2022/02/15 05:14:41;;;;;;;6.55;4.20;;;2.30;99.90;;;;;;5013056;28;20045;-87
2022/02/15 05:17:08;;;;;;;9.07;5.10;;;2.30;99.90;;;;;;5012234;28;20489;-87
2022/02/15 05:19:35;;;;;;;10.73;6.80;;;2.30;99.90;;;;;;5013594;28;20064;-87
2022/02/15 05:22:02;;;;;;;11.70;5.85;;;2.30;99.90;;;;;;4996405;28;20056;-87
2022/02/15 05:24:30;;;;;;;10.43;6.00;;;2.20;99.90;;;;;;5012653;28;20045;-86
2022/02/15 05:26:57;;;;;;;12.23;6.18;;;2.20;99.90;;;;;;5013754;28;20081;-87
2022/02/15 05:29:23;;;;;;;9.13;6.68;;;2.30;99.90;;;;;;5013597;28;20077;-87
2022/02/15 05:31:50;;;;;;;8.05;5.68;;;2.10;99.90;;;;;;5012398;28;20085;-87
2022/02/15 05:34:17;;;;;;;6.50;5.00;;;2.00;99.90;;;;;;5013567;28;20049;-87
2022/02/15 05:36:43;;;;;;;6.70;4.55;;;1.80;99.90;;;;;;4995839;28;20053;-87
2022/02/15 05:39:10;;;;;;;5.72;4.97;;;1.80;99.90;;;;;;5012057;28;20081;-87
2022/02/15 05:41:37;;;;;;;7.72;4.40;;;1.80;99.90;;;;;;5012383;28;20129;-87
2022/02/15 05:44:04;;;;;;;9.00;4.70;;;1.80;99.90;;;;;;5013311;28;20417;-87
2022/02/15 05:46:31;;;;;;;7.40;4.75;;;1.80;99.90;;;;;;5011980;28;20128;-87
2022/02/15 05:48:58;;;;;;;5.70;4.57;;;1.60;99.90;;;;;;5013147;28;20391;-87
2022/02/15 05:51:25;;;;;;;7.85;4.53;;;1.60;99.90;;;;;;5013335;28;20048;-87
2022/02/15 05:53:52;;;;;;;6.95;4.40;;;1.60;99.90;;;;;;5012298;28;20053;-87
2022/02/15 05:56:21;;;;;;;7.57;4.10;;;1.40;99.90;;;;;;5012688;28;20089;-86
2022/02/15 05:58:48;;;;;;;6.25;4.22;;;1.30;99.90;;;;;;5012714;28;20050;-86
2022/02/15 06:01:15;;;;;;;5.22;4.03;;;1.30;99.90;;;;;;5012381;28;20060;-86
2022/02/15 06:06:27;;;;;;;10.25;4.70;;;1.10;99.90;;;;;;5013832;28;20060;-85
2022/02/15 06:08:54;;;;;;;10.40;4.07;;;1.10;99.90;;;;;;5012966;28;20053;-86
2022/02/15 06:11:21;;;;;;;5.15;4.18;;;0.90;99.90;;;;;;5014512;28;20084;-86
2022/02/15 06:13:49;;;;;;;5.38;4.47;;;0.90;99.90;;;;;;5012960;28;20042;-85
2022/02/15 06:16:16;;;;;;;4.30;3.90;;;0.90;99.90;;;;;;5012653;28;20081;-86
2022/02/15 06:18:43;;;;;;;8.25;5.45;;;1.00;99.90;;;;;;5002782;28;20532;-85
2022/02/15 06:21:09;;;;;;;11.85;7.47;;;1.00;99.90;;;;;;5011204;28;20429;-86
2022/02/15 06:23:36;;;;;;;19.42;10.55;;;1.00;99.90;;;;;;5013300;28;20589;-84
2022/02/15 06:26:06;;;;;;;16.80;10.43;;;1.10;99.90;;;;;;5016192;28;20060;-85
2022/02/15 06:28:33;;;;;;;24.05;14.43;;;1.00;99.90;;;;;;5016033;28;20042;-85
2022/02/15 06:30:59;;;;;;;30.65;15.52;;;1.10;99.90;;;;;;5015982;28;20046;-86
2022/02/15 06:33:26;;;;;;;23.55;13.30;;;1.00;99.90;;;;;;5015807;28;20052;-87
2022/02/15 06:35:53;;;;;;;14.88;10.07;;;1.00;99.90;;;;;;5016781;28;20052;-85
2022/02/15 06:38:22;;;;;;;21.50;10.27;;;1.00;99.90;;;;;;5016033;28;20049;-85
2022/02/15 06:40:49;;;;;;;15.50;7.32;;;1.00;99.90;;;;;;5016824;28;20054;-85
2022/02/15 06:43:16;;;;;;;15.60;6.78;;;1.10;99.90;;;;;;5015649;28;20136;-86
2022/02/15 06:45:43;;;;;;;10.60;6.75;;;1.00;99.90;;;;;;5015528;28;20056;-86
2022/02/15 06:48:11;;;;;;;11.82;8.32;;;1.00;99.90;;;;;;5016732;28;20410;-85
2022/02/15 06:50:38;;;;;;;17.77;8.70;;;0.90;99.90;;;;;;5015277;28;20050;-85
2022/02/15 06:53:05;;;;;;;15.55;8.82;;;0.90;99.90;;;;;;5015668;28;20046;-85
2022/02/15 06:55:52;;;;;;;15.15;8.73;;;0.90;99.90;;;;;;5015307;28;20069;-86
2022/02/15 06:58:22;;;;;;;17.63;10.25;;;0.90;99.90;;;;;;5015137;28;20050;-85
2022/02/15 07:00:48;;;;;;;17.40;11.02;;;0.90;99.90;;;;;;5015014;28;20145;-85
2022/02/15 07:03:17;;;;;;;17.35;10.43;;;0.90;99.90;;;;;;5015473;28;20054;-86
2022/02/15 07:05:44;;;;;;;29.83;16.33;;;1.00;99.90;;;;;;5015836;28;20060;-85
2022/02/15 07:08:11;;;;;;;46.00;22.75;;;1.00;99.90;;;;;;5015466;28;20049;-85
2022/02/15 07:10:37;;;;;;;34.40;19.27;;;1.10;99.90;;;;;;5015159;28;20061;-86
2022/02/15 07:13:04;;;;;;;42.33;23.45;;;1.10;99.90;;;;;;5016614;28;20454;-87
2022/02/15 07:15:31;;;;;;;43.95;23.80;;;1.10;99.90;;;;;;5014785;28;20050;-88
2022/02/15 07:17:58;;;;;;;30.38;15.02;;;1.20;99.90;;;;;;5014919;28;20141;-86
2022/02/15 07:20:29;;;;;;;17.42;11.13;;;1.20;99.90;;;;;;5014897;28;20495;-85
2022/02/15 07:22:56;;;;;;;27.38;15.43;;;1.30;99.90;;;;;;5014796;28;20076;-86
2022/02/15 07:25:23;;;;;;;22.48;14.02;;;1.20;99.90;;;;;;5014787;28;20077;-85
2022/02/15 07:27:49;;;;;;;26.52;16.90;;;1.30;99.90;;;;;;5016678;28;20354;-85
2022/02/15 07:30:16;;;;;;;17.30;11.18;;;1.30;99.90;;;;;;5014492;28;20048;-85
2022/02/15 07:32:43;;;;;;;14.55;10.30;;;1.40;99.90;;;;;;5015823;28;20520;-85
2022/02/15 07:35:16;;;;;;;17.73;10.48;;;1.50;99.90;;;;;;5014542;28;20108;-86
2022/02/15 07:37:46;;;;;;;20.95;14.50;;;1.60;99.90;;;;;;5014264;28;20486;-85
2022/02/15 07:40:13;;;;;;;30.88;19.95;;;1.80;99.90;;;;;;5014697;28;20100;-85
2022/02/15 07:42:40;;;;;;;30.17;18.13;;;1.80;99.90;;;;;;5014061;28;20080;-85
2022/02/15 07:45:07;;;;;;;36.63;19.38;;;1.80;99.90;;;;;;5014011;28;20072;-85
2022/02/15 07:47:34;;;;;;;33.25;18.52;;;1.90;99.90;;;;;;5014110;28;20042;-85
2022/02/15 07:50:00;;;;;;;26.95;15.20;;;1.90;99.90;;;;;;5014109;28;20046;-85
2022/02/15 07:52:27;;;;;;;31.45;17.88;;;2.00;99.90;;;;;;5015079;28;20053;-85
2022/02/15 07:54:54;;;;;;;28.75;17.88;;;2.10;99.90;;;;;;5016868;28;20080;-85
2022/02/15 07:57:21;;;;;;;27.90;18.10;;;2.30;99.90;;;;;;5035089;28;20128;-84
2022/02/15 07:59:48;;;;;;;33.28;18.85;;;2.40;99.90;;;;;;5017287;28;20132;-85
2022/02/15 08:02:16;;;;;;;37.95;23.02;;;2.60;99.90;;;;;;5017411;28;20046;-85
2022/02/15 08:04:43;;;;;;;36.88;19.73;;;2.70;99.90;;;;;;5016850;28;20061;-85
2022/02/15 08:07:09;;;;;;;46.58;22.25;;;2.80;99.90;;;;;;5017528;28;20409;-85
2022/02/15 08:09:36;;;;;;;43.00;20.75;;;2.70;99.90;;;;;;5017218;28;20057;-85
2022/02/15 08:12:08;;;;;;;40.08;21.00;;;2.80;99.90;;;;;;5017071;28;20052;-84
2022/02/15 08:14:35;;;;;;;39.90;22.10;;;2.90;99.90;;;;;;5016979;28;20072;-84
2022/02/15 08:17:02;;;;;;;32.70;20.58;;;3.20;99.90;;;;;;5034801;28;20110;-85
2022/02/15 08:19:29;;;;;;;38.85;19.67;;;3.40;99.90;;;;;;5016803;28;20068;-85
2022/02/15 08:21:58;;;;;;;38.22;19.90;;;3.50;99.90;;;;;;5034440;28;20053;-85
2022/02/15 08:24:26;;;;;;;33.28;17.17;;;3.60;99.90;;;;;;5016892;28;20099;-85
2022/02/15 08:26:54;;;;;;;28.55;15.63;;;3.60;99.90;;;;;;5034622;28;20132;-85
2022/02/15 08:29:20;;;;;;;25.40;14.05;;;3.80;99.90;;;;;;5016635;28;20060;-85
2022/02/15 08:31:47;;;;;;;28.42;14.02;;;3.80;99.90;;;;;;5034525;28;20053;-85
2022/02/15 08:34:14;;;;;;;19.00;10.82;;;4.00;99.90;;;;;;5033642;28;20048;-85
2022/02/15 08:36:41;;;;;;;25.40;9.50;;;4.20;99.90;;;;;;5015993;28;20053;-85
2022/02/15 08:39:08;;;;;;;13.90;7.85;;;4.50;99.90;;;;;;5015909;28;20136;-85
2022/02/15 08:41:35;;;;;;;18.25;8.43;;;4.70;99.90;;;;;;5033434;28;20052;-85
2022/02/15 08:44:03;;;;;;;13.18;6.93;;;4.90;99.90;;;;;;5016770;28;20136;-85
2022/02/15 08:46:29;;;;;;;16.38;6.70;;;5.50;99.90;;;;;;5033795;28;20053;-85
2022/02/15 08:48:56;;;;;;;9.63;4.80;;;6.00;99.90;;;;;;5016837;28;20049;-85
2022/02/15 08:51:23;;;;;;;6.95;4.47;;;7.30;99.90;;;;;;5033832;28;20046;-85
2022/02/15 08:53:51;;;;;;;14.27;5.82;;;8.50;99.90;;;;;;5033836;28;20056;-85
2022/02/15 08:56:19;;;;;;;14.13;5.47;;;8.50;99.90;;;;;;5016430;28;20045;-85
2022/02/15 08:58:47;;;;;;;7.53;3.42;;;9.50;99.90;;;;;;5016518;28;20053;-85
2022/02/15 09:01:14;;;;;;;6.88;3.00;;;10.00;99.90;;;;;;5016294;28;20609;-85
2022/02/15 09:03:41;;;;;;;7.22;3.17;;;10.60;99.90;;;;;;5016329;28;20442;-86
2022/02/15 09:06:07;;;;;;;5.82;2.47;;;11.20;99.90;;;;;;5016158;28;20055;-85
2022/02/15 09:08:36;;;;;;;4.43;2.30;;;11.40;99.90;;;;;;5016352;28;20053;-85
2022/02/15 09:11:03;;;;;;;5.68;3.30;;;11.30;99.90;;;;;;5033986;28;20402;-86
2022/02/15 09:13:30;;;;;;;4.05;2.30;;;10.70;99.90;;;;;;5033777;28;20084;-85
2022/02/15 09:15:57;;;;;;;5.75;3.42;;;10.40;99.90;;;;;;5016435;28;20387;-86
2022/02/15 09:18:24;;;;;;;8.90;3.08;;;10.10;99.90;;;;;;5015702;28;20498;-85
2022/02/15 09:20:51;;;;;;;6.47;3.78;;;9.90;99.90;;;;;;5015903;28;20417;-86
2022/02/15 09:23:22;;;;;;;6.88;2.97;;;10.10;99.90;;;;;;5016760;28;20080;-86
2022/02/15 09:25:49;;;;;;;5.97;3.05;;;10.40;99.90;;;;;;5033585;28;20049;-86
2022/02/15 09:28:16;;;;;;;5.82;3.40;;;10.40;99.90;;;;;;5016513;28;20585;-86
2022/02/15 09:30:42;;;;;;;3.80;2.50;;;10.20;99.90;;;;;;5016186;28;20084;-85
2022/02/15 09:33:09;;;;;;;10.32;2.78;;;9.60;99.90;;;;;;5016216;28;20124;-86
2022/02/15 09:35:57;;;;;;;6.45;3.00;;;9.40;99.90;;;;;;5019725;28;20057;-86
2022/02/15 09:38:24;;;;;;;3.72;2.97;;;9.10;99.90;;;;;;5033610;28;20045;-86
2022/02/15 09:40:51;;;;;;;5.75;2.83;;;8.90;99.90;;;;;;5035001;28;20140;-87
2022/02/15 09:43:17;;;;;;;10.05;2.70;;;8.70;99.90;;;;;;5033049;28;20512;-86
2022/02/15 09:45:47;;;;;;;4.95;2.90;;;8.60;99.90;;;;;;5015415;28;20140;-86
2022/02/15 09:48:17;;;;;;;2.90;2.70;;;8.80;99.90;;;;;;5015830;28;20049;-86
2022/02/15 09:50:45;;;;;;;4.57;2.92;;;9.10;99.90;;;;;;5015835;28;20613;-89
2022/02/15 09:53:13;;;;;;;5.13;3.55;;;9.30;99.90;;;;;;5033683;28;20457;-85
2022/02/15 09:55:39;;;;;;;4.80;3.35;;;9.10;99.90;;;;;;5015873;28;20049;-85
2022/02/15 09:58:06;;;;;;;7.10;3.47;;;8.90;99.90;;;;;;5014716;28;20054;-85
2022/02/15 10:00:34;;;;;;;4.95;4.00;;;8.80;99.90;;;;;;5033039;28;20084;-86
2022/02/15 10:03:03;;;;;;;6.45;3.97;;;8.80;99.90;;;;;;5033520;28;20050;-85
2022/02/15 10:05:35;;;;;;;6.90;4.20;;;8.70;99.90;;;;;;5033227;28;20408;-86
2022/02/15 10:08:04;;;;;;;4.57;4.10;;;8.60;99.90;;;;;;5016007;28;20053;-86
2022/02/15 10:10:36;;;;;;;7.10;4.35;;;8.50;99.90;;;;;;5033115;28;20166;-86
2022/02/15 10:13:08;;;;;;;6.68;4.47;;;8.60;99.90;;;;;;5016515;28;20111;-88
2022/02/15 10:15:41;;;;;;;5.38;4.30;;;8.60;99.90;;;;;;5032955;28;20060;-85
2022/02/15 10:18:20;;;;;;;6.27;3.73;;;8.50;99.90;;;;;;5033025;28;20092;-85
2022/02/15 10:20:47;;;;;;;7.20;4.05;;;8.50;99.90;;;;;;5015407;28;20091;-85
2022/02/15 10:23:30;;;;;;;6.28;4.75;;;8.60;99.90;;;;;;5032661;28;20055;-85
2022/02/15 10:25:57;;;;;;;6.70;4.85;;;8.80;99.90;;;;;;5033350;28;20056;-86
2022/02/15 10:28:27;;;;;;;6.63;3.90;;;8.70;99.90;;;;;;5015494;28;20046;-88
2022/02/15 10:30:55;;;;;;;6.03;3.70;;;8.80;99.90;;;;;;5015539;28;20053;-85
2022/02/15 10:33:28;;;;;;;5.50;3.50;;;8.70;99.90;;;;;;5015344;28;20045;-85
2022/02/15 10:36:01;;;;;;;6.25;3.88;;;8.70;99.90;;;;;;5015204;28;20054;-86
2022/02/15 10:38:33;;;;;;;5.43;3.88;;;8.80;99.90;;;;;;5015470;28;20466;-85
2022/02/15 10:41:03;;;;;;;3.85;3.53;;;8.90;99.90;;;;;;5032727;28;20414;-85
2022/02/15 10:43:44;;;;;;;5.95;3.60;;;9.10;99.90;;;;;;5015295;28;20045;-85
2022/02/15 10:46:15;;;;;;;4.45;3.45;;;9.20;99.90;;;;;;5032294;28;20490;-85
2022/02/15 10:48:42;;;;;;;6.50;3.13;;;9.20;99.90;;;;;;5015244;28;20045;-85
2022/02/15 10:51:09;;;;;;;4.32;3.63;;;9.20;99.90;;;;;;5015212;28;20053;-86
2022/02/15 10:53:56;;;;;;;4.18;3.35;;;9.20;99.90;;;;;;5032811;28;20076;-86
2022/02/15 10:56:31;;;;;;;4.28;3.70;;;8.90;99.90;;;;;;5032712;28;20045;-86
2022/02/15 10:59:03;;;;;;;7.32;3.85;;;8.70;99.90;;;;;;5015797;28;20111;-85
2022/02/15 11:01:32;;;;;;;7.38;3.70;;;8.60;99.90;;;;;;5032315;28;20068;-86
2022/02/15 11:04:01;;;;;;;4.90;3.92;;;8.50;99.90;;;;;;5015136;28;20056;-86
2022/02/15 11:06:28;;;;;;;4.05;3.65;;;8.50;99.90;;;;;;5015244;28;20490;-86
2022/02/15 11:08:59;;;;;;;4.43;3.45;;;8.50;99.90;;;;;;5015449;28;20049;-85
2022/02/15 11:11:32;;;;;;;7.88;3.03;;;8.80;99.90;;;;;;5018340;28;20526;-86
2022/02/15 11:13:59;;;;;;;;;;;9.60;99.90;;;;;;5019065;28;20132;-86
2022/02/15 11:16:32;;;;;;;3.97;2.45;;;10.90;99.90;;;;;;5018529;28;19927;-86
2022/02/15 11:19:09;;;;;;;3.35;2.42;;;11.60;99.90;;;;;;5018427;28;20454;-86
2022/02/15 11:21:36;;;;;;;2.40;2.28;;;11.90;99.90;;;;;;5018164;28;20054;-85
2022/02/15 11:24:07;;;;;;;3.50;3.08;;;12.10;99.90;;;;;;5035104;28;20391;-84
2022/02/15 11:26:42;;;;;;;2.90;2.15;;;12.80;99.90;;;;;;5018112;28;20111;-86
2022/02/15 11:29:23;;;;;;;7.22;2.28;;;13.10;99.90;;;;;;5035738;28;20463;-85
2022/02/15 11:31:50;;;;;;;1.95;1.80;;;13.30;99.90;;;;;;5018148;28;20057;-86
2022/02/15 11:34:27;;;;;;;2.17;1.98;;;13.50;99.90;;;;;;5018036;28;20053;-85
2022/02/15 11:36:55;;;;;;;3.13;2.30;;;13.00;99.90;;;;;;5018171;28;20045;-86
2022/02/15 11:39:24;;;;;;;2.60;2.35;;;13.00;99.90;;;;;;5018064;28;20049;-86
2022/02/15 11:41:59;;;;;;;3.15;2.10;;;13.70;99.90;;;;;;5035595;28;20049;-86
2022/02/15 11:44:33;;;;;;;2.22;1.88;;;14.80;99.90;;;;;;5013769;28;20481;-85
2022/02/15 11:47:17;;;;;;;3.78;2.58;;;14.20;99.90;;;;;;5035456;28;20103;-88
2022/02/15 11:49:52;;;;;;;4.07;2.38;;;13.10;99.90;;;;;;5018108;28;20440;-87
2022/02/15 11:52:21;;;;;;;4.03;2.60;;;11.90;99.90;;;;;;5035391;28;20100;-86
2022/02/15 11:54:48;;;;;;;4.60;2.83;;;10.90;99.90;;;;;;5034985;28;20049;-85
2022/02/15 11:57:15;;;;;;;6.13;3.65;;;9.80;99.90;;;;;;5017523;28;20053;-85
2022/02/15 11:59:50;;;;;;;7.82;3.72;;;9.10;99.90;;;;;;5017430;28;20063;-85
2022/02/15 12:02:17;;;;;;;3.50;3.20;;;8.60;99.90;;;;;;5017805;28;20458;-85
2022/02/15 12:04:59;;;;;;;3.38;3.08;;;8.40;99.90;;;;;;5017141;28;20049;-84
2022/02/15 12:07:30;;;;;;;6.05;3.13;;;8.20;99.90;;;;;;5013495;28;20055;-85
2022/02/15 12:09:59;;;;;;;5.03;3.33;;;8.00;99.90;;;;;;5017376;28;20045;-84
2022/02/15 12:12:34;;;;;;;5.15;3.00;;;8.00;99.90;;;;;;5017103;28;20053;-84
2022/02/15 12:15:01;;;;;;;1.00;0.98;;;8.00;99.90;;;;;;5017288;28;20060;-86
2022/02/15 12:17:28;;;;;;;3.45;1.50;;;7.80;99.90;;;;;;5016966;28;20053;-85
2022/02/15 12:20:07;;;;;;;2.88;1.77;;;7.50;99.90;;;;;;5034649;28;20537;-85
2022/02/15 12:22:38;;;;;;;1.15;1.15;;;7.50;99.90;;;;;;5016387;28;20140;-85
2022/02/15 12:25:06;;;;;;;3.17;1.40;;;7.50;99.90;;;;;;5016802;28;20049;-85
2022/02/15 12:27:33;;;;;;;2.33;1.35;;;7.50;99.90;;;;;;5017282;28;20494;-86
2022/02/15 12:30:00;;;;;;;1.90;1.45;;;7.60;99.90;;;;;;5016749;28;20055;-85
2022/02/15 12:32:31;;;;;;;2.10;1.85;;;7.60;99.90;;;;;;5016772;28;20057;-83
2022/02/15 12:34:58;;;;;;;1.98;1.77;;;7.40;99.90;;;;;;5016119;28;20051;-83
2022/02/15 12:37:27;;;;;;;1.80;1.70;;;7.30;99.90;;;;;;5016391;28;20056;-83
2022/02/15 12:40:00;;;;;;;1.75;1.65;;;7.20;99.90;;;;;;5016240;28;20085;-83
2022/02/15 12:42:29;;;;;;;2.13;1.95;;;7.10;99.90;;;;;;5016076;28;20060;-83
2022/02/15 12:45:01;;;;;;;2.65;1.98;;;6.90;99.90;;;;;;5033417;28;20410;-83
2022/02/15 12:47:29;;;;;;;2.92;2.30;;;6.90;99.90;;;;;;5033743;28;20049;-84
2022/02/15 12:49:57;;;;;;;2.58;2.20;;;6.80;99.90;;;;;;5016153;28;20050;-84
2022/02/15 12:52:27;;;;;;;3.00;1.70;;;6.70;99.90;;;;;;5033249;28;20103;-83
2022/02/15 12:54:59;;;;;;;1.52;1.42;;;6.60;99.90;;;;;;5015594;28;20490;-84
2022/02/15 12:57:26;;;;;;;1.92;1.58;;;6.40;99.90;;;;;;5032709;28;20490;-84
2022/02/15 12:59:56;;;;;;;1.40;1.00;;;6.40;99.90;;;;;;5033660;28;20071;-84
2022/02/15 13:02:25;;;;;;;1.35;1.25;;;6.40;99.90;;;;;;5033250;28;20111;-85
2022/02/15 13:04:56;;;;;;;3.38;2.00;;;6.40;99.90;;;;;;5015683;28;20051;-84
2022/02/15 13:07:24;;;;;;;1.70;1.60;;;6.30;99.90;;;;;;5015599;28;20092;-83